createdAt,value
2023-02-14T00:01:44.066Z,30.90
2023-02-14T00:04:10.698Z,28.10
2023-02-14T00:06:39.256Z,32.63
2023-02-14T00:09:07.598Z,22.05
2023-02-14T00:11:34.168Z,21.90
2023-02-14T00:14:19.119Z,27.27
2023-02-14T00:16:46.198Z,23.52
2023-02-14T00:19:15.301Z,27.10
2023-02-14T00:21:42.219Z,29.95
2023-02-14T00:24:11.928Z,26.92
2023-02-14T00:26:38.894Z,31.98
2023-02-14T00:29:13.513Z,33.88
2023-02-14T00:31:41.611Z,34.28
2023-02-14T00:34:09.041Z,29.90
2023-02-14T00:36:36.791Z,29.65
2023-02-14T00:39:09.285Z,35.47
2023-02-14T00:41:36.218Z,35.55
2023-02-14T00:44:02.975Z,38.78
2023-02-14T00:46:29.670Z,53.30
2023-02-14T00:48:56.779Z,59.22
2023-02-14T00:51:23.937Z,51.42
2023-02-14T00:53:51.467Z,69.35
2023-02-14T00:56:20.285Z,53.80
2023-02-14T01:01:15.625Z,56.17
2023-02-14T01:03:42.570Z,80.75
2023-02-14T01:06:09.672Z,71.97
2023-02-14T01:08:36.200Z,120.53
2023-02-14T01:11:18.205Z,120.30
2023-02-14T01:13:45.784Z,77.72
2023-02-14T01:16:16.019Z,67.18
2023-02-14T01:18:44.092Z,56.25
2023-02-14T01:21:15.166Z,47.95
2023-02-14T01:23:42.775Z,48.75
2023-02-14T01:26:10.719Z,44.25
2023-02-14T01:28:37.823Z,42.40
2023-02-14T01:31:17.116Z,42.75
2023-02-14T01:33:47.099Z,45.10
2023-02-14T01:36:19.077Z,46.22
2023-02-14T01:38:45.985Z,53.17
2023-02-14T01:41:13.278Z,44.83
2023-02-14T01:43:55.954Z,39.22
2023-02-14T01:46:23.424Z,33.63
2023-02-14T01:48:51.076Z,33.30
2023-02-14T01:51:20.145Z,35.25
2023-02-14T01:53:47.785Z,34.65
2023-02-14T01:56:21.168Z,34.28
2023-02-14T01:58:52.803Z,32.78
2023-02-14T02:01:20.067Z,31.90
2023-02-14T02:03:55.989Z,33.25
2023-02-14T02:06:35.662Z,34.05
2023-02-14T02:09:15.119Z,31.85
2023-02-14T02:11:42.848Z,32.60
2023-02-14T02:14:16.008Z,44.95
2023-02-14T02:16:47.820Z,35.75
2023-02-14T02:19:36.549Z,39.72
2023-02-14T02:22:46.857Z,83.07
2023-02-14T02:25:59.180Z,57.63
2023-02-14T02:28:51.710Z,70.10
2023-02-14T02:31:52.425Z,47.63
2023-02-14T02:34:56.233Z,37.38
2023-02-14T02:37:31.580Z,65.90
2023-02-14T02:40:13.167Z,75.22
2023-02-14T02:43:02.674Z,102.18
2023-02-14T02:45:56.952Z,67.55
2023-02-14T02:48:32.189Z,50.70
2023-02-14T02:51:20.669Z,62.30
2023-02-14T02:54:02.919Z,44.67
2023-02-14T02:56:46.948Z,43.60
2023-02-14T02:59:22.081Z,45.70
2023-02-14T03:01:54.885Z,63.97
2023-02-14T03:04:44.905Z,44.13
2023-02-14T03:07:30.935Z,54.00
2023-02-14T03:10:00.890Z,58.78
2023-02-14T03:12:33.317Z,40.45
2023-02-14T03:15:11.027Z,44.47
2023-02-14T03:17:43.684Z,63.85
2023-02-14T03:20:45.567Z,39.53
2023-02-14T03:23:22.495Z,42.92
2023-02-14T03:25:54.939Z,44.70
2023-02-14T03:28:47.223Z,32.35
2023-02-14T03:31:16.624Z,45.00
2023-02-14T03:34:03.715Z,51.97
2023-02-14T03:36:33.668Z,42.45
2023-02-14T03:39:10.850Z,39.33
2023-02-14T03:41:51.674Z,54.65
2023-02-14T03:44:22.248Z,41.50
2023-02-14T03:47:01.455Z,47.97
2023-02-14T03:49:35.003Z,51.15
2023-02-14T03:52:03.965Z,53.80
2023-02-14T03:54:32.961Z,74.82
2023-02-14T03:57:24.943Z,39.08
2023-02-14T03:59:53.324Z,42.88
2023-02-14T04:02:37.961Z,31.30
2023-02-14T04:05:11.963Z,30.20
2023-02-14T04:07:48.977Z,41.58
2023-02-14T04:10:16.858Z,35.67
2023-02-14T04:12:43.654Z,32.75
2023-02-14T04:15:10.737Z,63.17
2023-02-14T04:18:03.613Z,39.28
2023-02-14T04:20:30.508Z,42.78
2023-02-14T04:22:57.658Z,43.10
2023-02-14T04:25:24.551Z,25.83
2023-02-14T04:27:52.061Z,34.03
2023-02-14T04:30:20.826Z,26.67
2023-02-14T04:35:14.650Z,54.28
2023-02-14T04:37:42.873Z,33.30
2023-02-14T04:40:10.146Z,38.15
2023-02-14T04:42:36.862Z,41.22
2023-02-14T04:45:05.526Z,48.25
2023-02-14T04:47:32.443Z,41.08
2023-02-14T04:49:59.108Z,53.97
2023-02-14T04:52:27.422Z,37.30
2023-02-14T04:57:34.706Z,34.72
2023-02-14T05:00:01.459Z,34.63
2023-02-14T05:02:32.258Z,44.25
2023-02-14T05:04:59.621Z,40.22
2023-02-14T05:07:26.239Z,27.00
2023-02-14T05:09:52.766Z,27.25
2023-02-14T05:12:19.560Z,27.20
2023-02-14T05:17:27.613Z,27.98
2023-02-14T05:19:54.482Z,25.88
2023-02-14T05:22:21.404Z,26.75
2023-02-14T05:24:48.002Z,26.48
2023-02-14T05:27:14.662Z,27.80
2023-02-14T05:29:44.100Z,25.30
2023-02-14T05:32:11.618Z,28.70
2023-02-14T05:34:38.433Z,26.30
2023-02-14T05:37:05.089Z,27.80
2023-02-14T05:39:32.593Z,26.98
2023-02-14T05:41:59.585Z,27.85
2023-02-14T05:44:26.323Z,25.40
2023-02-14T05:46:53.157Z,26.08
2023-02-14T05:49:20.127Z,25.48
2023-02-14T05:51:47.110Z,24.05
2023-02-14T05:54:13.736Z,31.48
2023-02-14T05:56:40.479Z,28.17
2023-02-14T05:59:10.680Z,26.67
2023-02-14T06:01:37.421Z,27.67
2023-02-14T06:04:04.190Z,26.92
2023-02-14T06:06:31.584Z,24.88
2023-02-14T06:09:02.268Z,26.05
2023-02-14T06:11:29.583Z,24.98
2023-02-14T06:13:57.078Z,26.17
2023-02-14T06:16:23.834Z,26.13
2023-02-14T06:18:50.417Z,24.27
2023-02-14T06:21:17.257Z,24.10
2023-02-14T06:23:45.505Z,23.38
2023-02-14T06:26:13.785Z,27.77
2023-02-14T06:28:40.284Z,27.15
2023-02-14T06:31:07.023Z,25.58
2023-02-14T06:33:33.790Z,29.60
2023-02-14T06:36:00.431Z,26.08
2023-02-14T06:38:29.085Z,29.83
2023-02-14T06:40:55.570Z,28.77
2023-02-14T06:43:22.333Z,26.67
2023-02-14T06:45:48.809Z,26.85
2023-02-14T06:48:15.662Z,29.02
2023-02-14T06:50:43.151Z,27.25
2023-02-14T06:53:09.812Z,26.13
2023-02-14T06:55:36.503Z,32.65
2023-02-14T06:58:03.317Z,29.17
2023-02-14T07:00:30.094Z,27.27
2023-02-14T07:02:57.784Z,30.42
2023-02-14T07:05:24.575Z,30.60
2023-02-14T07:07:52.866Z,33.47
2023-02-14T07:10:19.973Z,32.88
2023-02-14T07:12:46.790Z,33.47
2023-02-14T07:15:13.582Z,34.70
2023-02-14T07:17:48.225Z,40.05
2023-02-14T07:20:15.775Z,45.83
2023-02-14T07:22:42.748Z,64.45
2023-02-14T07:25:13.158Z,53.33
2023-02-14T07:27:40.169Z,83.10
2023-02-14T07:30:08.585Z,54.40
2023-02-14T07:32:38.413Z,77.47
2023-02-14T07:35:05.657Z,52.63
2023-02-14T07:37:33.705Z,41.47
2023-02-14T07:40:00.267Z,49.72
2023-02-14T07:42:27.153Z,48.03
2023-02-14T07:44:53.792Z,48.90
2023-02-14T07:47:20.400Z,50.60
2023-02-14T07:49:46.955Z,47.13
2023-02-14T07:52:13.442Z,54.53
2023-02-14T07:54:41.309Z,58.13
2023-02-14T07:57:08.093Z,53.78
2023-02-14T07:59:36.213Z,52.88
2023-02-14T08:02:04.767Z,51.22
2023-02-14T08:04:33.752Z,54.88
2023-02-14T08:07:00.798Z,55.28
2023-02-14T08:09:27.545Z,51.92
2023-02-14T08:12:15.611Z,51.05
2023-02-14T08:14:43.486Z,47.45
2023-02-14T08:17:11.679Z,44.42
2023-02-14T08:19:38.425Z,44.65
2023-02-14T08:22:05.497Z,40.65
2023-02-14T08:24:32.496Z,39.90
2023-02-14T08:26:59.860Z,39.28
2023-02-14T08:29:26.486Z,34.95
2023-02-14T08:31:53.762Z,39.40
2023-02-14T08:34:22.240Z,48.17
2023-02-14T08:36:48.946Z,38.97
2023-02-14T08:39:15.538Z,35.08
2023-02-14T08:41:42.049Z,37.42
2023-02-14T08:44:08.890Z,37.55
2023-02-14T08:46:36.056Z,37.70
2023-02-14T08:49:02.835Z,36.13
2023-02-14T08:51:29.614Z,37.58
2023-02-14T08:53:56.485Z,36.75
2023-02-14T08:56:24.427Z,39.90
2023-02-14T08:58:55.267Z,37.35
2023-02-14T09:01:22.412Z,41.60
2023-02-14T09:03:49.137Z,43.67
2023-02-14T09:06:17.542Z,40.53
2023-02-14T09:08:44.998Z,40.83
2023-02-14T09:11:18.898Z,37.30
2023-02-14T09:13:47.441Z,37.47
2023-02-14T09:16:19.280Z,38.40
2023-02-14T09:18:47.418Z,43.58
2023-02-14T09:21:17.283Z,42.72
2023-02-14T09:23:44.405Z,42.88
2023-02-14T09:26:13.705Z,42.10
2023-02-14T09:28:42.040Z,48.00
2023-02-14T09:31:14.644Z,41.53
2023-02-14T09:33:46.282Z,42.15
2023-02-14T09:36:18.838Z,46.38
2023-02-14T09:38:47.694Z,40.95
2023-02-14T09:44:44.646Z,44.08
2023-02-14T09:47:35.634Z,41.67
2023-02-14T09:50:07.148Z,50.53
2023-02-14T09:52:37.829Z,48.40
2023-02-14T09:55:14.920Z,43.50
2023-02-14T09:57:56.935Z,44.40
2023-02-14T10:00:31.291Z,41.63
2023-02-14T10:03:29.273Z,41.33
2023-02-14T10:06:12.291Z,41.85
2023-02-14T10:08:44.215Z,44.53
2023-02-14T10:11:20.750Z,45.15
2023-02-14T10:13:54.559Z,45.28
2023-02-14T10:16:28.910Z,44.03
2023-02-14T10:19:05.235Z,42.78
2023-02-14T10:21:43.113Z,40.95
2023-02-14T10:24:21.668Z,41.33
2023-02-14T10:26:54.775Z,39.75
2023-02-14T10:29:22.667Z,42.72
2023-02-14T10:32:04.481Z,40.50
2023-02-14T10:34:46.024Z,40.97
2023-02-14T10:37:17.747Z,37.47
2023-02-14T10:40:00.573Z,42.42
2023-02-14T10:43:12.923Z,43.47
2023-02-14T10:45:52.894Z,38.88
2023-02-14T10:48:42.788Z,36.70
2023-02-14T10:51:25.766Z,37.67
2023-02-14T10:54:13.703Z,37.25
2023-02-14T10:57:19.255Z,36.58
2023-02-14T11:00:14.281Z,33.90
2023-02-14T11:02:49.932Z,36.05
2023-02-14T11:05:41.090Z,34.58
2023-02-14T11:08:20.125Z,34.33
2023-02-14T11:10:50.630Z,32.65
2023-02-14T11:13:36.078Z,40.65
2023-02-14T11:20:12.997Z,37.40
2023-02-14T11:22:39.834Z,32.55
2023-02-14T11:25:30.689Z,37.28
2023-02-14T11:28:12.480Z,36.70
2023-02-14T11:30:47.805Z,34.58
2023-02-14T11:33:33.493Z,34.58
2023-02-14T11:36:03.244Z,35.05
2023-02-14T11:38:36.186Z,38.33
2023-02-14T11:41:04.959Z,34.00
2023-02-14T11:43:45.860Z,33.20
2023-02-14T11:46:36.144Z,36.67
2023-02-14T11:49:09.464Z,33.17
2023-02-14T11:51:42.174Z,33.63
2023-02-14T11:54:27.719Z,36.33
2023-02-14T11:57:06.023Z,36.33
2023-02-14T11:59:43.626Z,36.08
2023-02-14T12:02:29.439Z,34.53
2023-02-14T12:07:45.822Z,38.60
2023-02-14T12:10:19.051Z,33.63
2023-02-14T12:12:48.586Z,31.60
2023-02-14T12:15:25.230Z,31.38
2023-02-14T12:17:58.884Z,33.47
2023-02-14T12:20:49.379Z,33.65
2023-02-14T12:23:26.413Z,33.05
2023-02-14T12:25:59.113Z,29.25
2023-02-14T12:28:38.661Z,32.13
2023-02-14T12:31:13.580Z,32.25
2023-02-14T12:33:41.202Z,34.90
2023-02-14T12:36:30.931Z,32.97
2023-02-14T12:39:16.603Z,33.25
2023-02-14T12:42:00.340Z,34.60
2023-02-14T12:44:59.586Z,33.53
2023-02-14T12:47:54.983Z,32.15
2023-02-14T12:50:37.992Z,32.38
2023-02-14T12:53:25.984Z,31.13
2023-02-14T12:56:11.501Z,31.75
2023-02-14T12:58:51.014Z,34.22
2023-02-14T13:01:39.221Z,30.55
2023-02-14T13:04:34.184Z,30.90
2023-02-14T13:07:13.807Z,31.55
2023-02-14T13:09:54.634Z,36.92
2023-02-14T13:12:44.488Z,29.92
2023-02-14T13:15:27.587Z,32.67
2023-02-14T13:18:12.522Z,31.63
2023-02-14T13:20:58.350Z,32.30
2023-02-14T13:23:36.143Z,31.77
2023-02-14T13:26:29.617Z,31.70
2023-02-14T13:29:02.310Z,27.90
2023-02-14T13:46:02.821Z,33.20
2023-02-14T13:48:30.845Z,30.95
2023-02-14T13:50:59.986Z,29.85
2023-02-14T13:53:34.712Z,28.23
2023-02-14T13:59:06.055Z,26.92
2023-02-14T14:01:51.610Z,28.27
2023-02-14T14:04:31.935Z,29.88
2023-02-14T14:07:04.652Z,29.88
2023-02-14T14:09:43.873Z,29.15
2023-02-14T14:12:28.824Z,29.35
2023-02-14T14:15:08.235Z,31.98
2023-02-14T14:17:39.406Z,29.38
2023-02-14T14:20:21.725Z,27.80
2023-02-14T14:22:50.678Z,28.33
2023-02-14T14:25:37.930Z,28.10
2023-02-14T14:28:12.096Z,28.40
2023-02-14T14:30:44.666Z,26.98
2023-02-14T14:33:31.975Z,30.23
2023-02-14T14:36:21.683Z,29.08
2023-02-14T14:38:51.241Z,28.00
2023-02-14T14:41:19.248Z,32.30
2023-02-14T14:43:47.844Z,32.53
2023-02-14T14:46:16.085Z,28.90
2023-02-14T14:48:51.590Z,29.02
2023-02-14T14:51:31.495Z,31.10
2023-02-14T14:54:03.514Z,28.90
2023-02-14T14:56:35.670Z,27.75
2023-02-14T14:59:35.766Z,28.65
2023-02-14T15:02:04.215Z,30.27
2023-02-14T15:07:27.864Z,31.25
2023-02-14T15:09:54.665Z,32.72
2023-02-14T15:12:43.334Z,32.30
2023-02-14T15:15:16.930Z,30.90
2023-02-14T15:17:45.996Z,31.02
2023-02-14T15:20:24.204Z,30.35
2023-02-14T15:22:55.204Z,31.30
2023-02-14T15:25:22.526Z,27.23
2023-02-14T15:27:49.743Z,28.90
2023-02-14T15:30:21.930Z,30.55
2023-02-14T15:32:50.642Z,29.92
2023-02-14T15:35:24.255Z,30.25
2023-02-14T15:37:52.151Z,31.52
2023-02-14T15:40:24.625Z,28.40
2023-02-14T15:42:59.121Z,31.17
2023-02-14T15:47:55.850Z,31.38
2023-02-14T15:50:27.924Z,29.55
2023-02-14T15:53:00.352Z,30.10
2023-02-14T15:55:28.055Z,31.17
2023-02-14T15:58:02.995Z,29.88
2023-02-14T16:00:31.802Z,30.15
2023-02-14T16:03:23.898Z,29.25
2023-02-14T16:05:51.444Z,30.60
2023-02-14T16:08:37.781Z,29.40
2023-02-14T16:11:14.668Z,31.13
2023-02-14T16:13:47.799Z,29.02
2023-02-14T16:16:15.707Z,28.30
2023-02-14T16:18:43.804Z,33.60
2023-02-14T16:21:16.407Z,33.42
2023-02-14T16:23:45.940Z,32.97
2023-02-14T16:26:13.296Z,31.08
2023-02-14T16:28:43.034Z,28.55
2023-02-14T16:31:15.532Z,30.50
2023-02-14T16:33:44.917Z,32.30
2023-02-14T16:36:26.453Z,31.15
2023-02-14T16:38:53.580Z,33.92
2023-02-14T16:41:26.438Z,34.30
2023-02-14T16:43:55.505Z,33.03
2023-02-14T16:46:26.226Z,31.80
2023-02-14T16:48:53.176Z,36.25
2023-02-14T16:51:22.571Z,33.63
2023-02-14T16:53:50.515Z,36.42
2023-02-14T16:56:26.091Z,35.80
2023-02-14T16:58:52.741Z,36.25
2023-02-14T17:01:19.438Z,36.92
2023-02-14T17:03:46.292Z,37.85
2023-02-14T17:06:17.097Z,41.85
2023-02-14T17:08:44.021Z,36.90
2023-02-14T17:11:11.367Z,40.33
2023-02-14T17:13:41.291Z,38.45
2023-02-14T17:16:11.948Z,39.63
2023-02-14T17:18:41.646Z,35.05
2023-02-14T17:21:11.997Z,41.10
2023-02-14T17:23:38.651Z,38.47
2023-02-14T17:26:06.155Z,40.33
2023-02-14T17:28:33.353Z,40.75
2023-02-14T17:31:01.151Z,38.28
2023-02-14T17:33:30.467Z,41.60
2023-02-14T17:36:06.814Z,41.40
2023-02-14T17:38:35.922Z,35.13
2023-02-14T17:41:22.780Z,34.78
2023-02-14T17:43:51.342Z,37.72
2023-02-14T17:48:49.206Z,42.65
2023-02-14T17:51:18.119Z,40.03
2023-02-14T17:53:44.828Z,42.92
2023-02-14T17:56:14.733Z,41.88
2023-02-14T17:58:41.714Z,43.38
2023-02-14T18:01:10.896Z,46.53
2023-02-14T18:03:39.108Z,45.92
2023-02-14T18:06:06.934Z,46.38
2023-02-14T18:08:39.207Z,49.38
2023-02-14T18:11:08.196Z,47.13
2023-02-14T18:13:35.400Z,49.55
2023-02-14T18:16:04.719Z,43.28
2023-02-14T18:18:32.779Z,41.47
2023-02-14T18:21:03.302Z,44.25
2023-02-14T18:23:32.926Z,42.65
2023-02-14T18:26:04.656Z,45.75
2023-02-14T18:28:32.771Z,43.13
2023-02-14T18:31:09.357Z,40.80
2023-02-14T18:33:37.683Z,43.03
2023-02-14T18:36:09.094Z,42.15
2023-02-14T18:38:36.268Z,46.85
2023-02-14T18:41:05.635Z,42.75
2023-02-14T18:43:32.659Z,40.00
2023-02-14T18:46:07.916Z,44.38
2023-02-14T18:48:37.364Z,43.80
2023-02-14T18:51:14.326Z,47.35
2023-02-14T18:53:44.390Z,43.00
2023-02-14T18:56:15.766Z,42.90
2023-02-14T18:58:49.059Z,44.92
2023-02-14T19:01:18.048Z,45.72
2023-02-14T19:03:45.730Z,44.08
2023-02-14T19:06:13.507Z,40.53
2023-02-14T19:08:41.839Z,43.35
2023-02-14T19:11:20.291Z,42.55
2023-02-14T19:13:58.710Z,38.28
2023-02-14T19:16:28.578Z,39.38
2023-02-14T19:18:55.963Z,38.58
2023-02-14T19:21:25.901Z,38.47
2023-02-14T19:23:57.269Z,39.47
2023-02-14T19:26:31.782Z,45.38
2023-02-14T19:29:04.854Z,42.97
2023-02-14T19:31:36.378Z,39.65
2023-02-14T19:34:05.177Z,39.67
2023-02-14T19:36:33.341Z,38.70
2023-02-14T19:39:00.181Z,43.15
2023-02-14T19:41:32.248Z,40.47
2023-02-14T19:43:59.909Z,42.90
2023-02-14T19:46:28.410Z,42.10
2023-02-14T19:49:06.289Z,51.20
2023-02-14T19:51:36.329Z,42.97
2023-02-14T19:54:12.838Z,43.50
2023-02-14T19:56:46.525Z,47.60
2023-02-14T20:02:04.516Z,46.00
2023-02-14T20:04:32.234Z,40.05
2023-02-14T20:06:59.280Z,47.08
2023-02-14T20:09:26.950Z,48.28
2023-02-14T20:11:56.357Z,51.42
2023-02-14T20:14:38.421Z,51.42
2023-02-14T20:17:15.149Z,53.42
2023-02-14T20:19:42.626Z,50.05
2023-02-14T20:22:09.401Z,55.75
2023-02-14T20:24:36.270Z,57.17
2023-02-14T20:27:03.918Z,58.67
2023-02-14T20:29:31.330Z,61.10
2023-02-14T20:32:00.262Z,55.60
2023-02-14T20:34:29.384Z,59.30
2023-02-14T20:36:57.222Z,59.90
2023-02-14T20:39:29.888Z,62.80
2023-02-14T20:41:56.875Z,67.80
2023-02-14T20:44:25.664Z,69.07
2023-02-14T20:49:23.685Z,64.70
2023-02-14T20:51:51.398Z,67.93
2023-02-14T20:54:24.373Z,66.10
2023-02-14T20:56:51.651Z,66.18
2023-02-14T20:59:29.224Z,71.95
2023-02-14T21:01:59.940Z,75.22
2023-02-14T21:04:27.469Z,68.60
2023-02-14T21:06:54.764Z,64.47
2023-02-14T21:09:22.142Z,65.30
2023-02-14T21:11:50.536Z,68.97
2023-02-14T21:14:18.302Z,70.90
2023-02-14T21:16:48.530Z,58.80
2023-02-14T21:19:15.439Z,68.55
2023-02-14T21:21:42.912Z,60.25
2023-02-14T21:24:16.093Z,59.42
2023-02-14T21:26:44.809Z,59.08
2023-02-14T21:29:11.574Z,60.88
2023-02-14T21:31:38.732Z,56.38
2023-02-14T21:34:06.026Z,58.95
2023-02-14T21:36:38.691Z,49.65
2023-02-14T21:39:10.917Z,49.63
2023-02-14T21:41:37.992Z,41.20
2023-02-14T21:44:05.933Z,45.55
2023-02-14T21:46:37.200Z,42.53
2023-02-14T21:49:23.955Z,49.47
2023-02-14T21:51:50.858Z,46.72
2023-02-14T21:54:18.076Z,40.17
2023-02-14T21:56:45.303Z,39.00
2023-02-14T22:01:53.525Z,42.55
2023-02-14T22:04:20.279Z,40.30
2023-02-14T22:06:47.279Z,38.97
2023-02-14T22:09:15.095Z,36.20
2023-02-14T22:11:41.908Z,37.22
2023-02-14T22:14:09.076Z,42.70
2023-02-14T22:16:38.892Z,42.92
2023-02-14T22:19:07.075Z,40.88
2023-02-14T22:21:34.522Z,35.33
2023-02-14T22:24:02.401Z,41.70
2023-02-14T22:26:31.629Z,36.55
2023-02-14T22:29:00.379Z,30.88
2023-02-14T22:31:30.264Z,38.50
2023-02-14T22:33:57.209Z,32.45
2023-02-14T22:36:24.502Z,35.92
2023-02-14T22:38:51.526Z,30.08
2023-02-14T22:41:22.082Z,30.92
2023-02-14T22:43:49.556Z,27.20
2023-02-14T22:46:20.255Z,29.52
2023-02-14T22:48:48.898Z,30.52
2023-02-14T22:51:24.076Z,39.30
2023-02-14T22:53:53.206Z,32.05
2023-02-14T22:56:29.356Z,30.85
2023-02-14T22:58:58.204Z,30.30
2023-02-14T23:03:57.578Z,32.80
2023-02-14T23:06:26.070Z,35.75
2023-02-14T23:08:55.617Z,34.30
2023-02-14T23:11:25.673Z,33.35
2023-02-14T23:14:12.691Z,32.75
2023-02-14T23:16:58.644Z,34.00
2023-02-14T23:19:49.676Z,35.10
2023-02-14T23:22:22.325Z,33.45
2023-02-14T23:24:51.348Z,35.25
2023-02-14T23:27:21.919Z,35.53
2023-02-14T23:29:49.554Z,36.17
2023-02-14T23:32:17.156Z,40.35
2023-02-14T23:34:45.818Z,42.65
2023-02-14T23:37:14.265Z,40.80
2023-02-14T23:39:41.719Z,39.03
2023-02-14T23:42:13.941Z,40.63
2023-02-14T23:44:42.261Z,40.72
2023-02-14T23:47:11.132Z,42.47
2023-02-14T23:49:39.745Z,43.65
2023-02-14T23:52:15.541Z,41.95
2023-02-14T23:54:42.475Z,44.88
2023-02-14T23:57:09.546Z,41.05
2023-02-14T23:59:36.492Z,42.00
